sensor_id;sensor_type;location;lat;lon;timestamp;P1;durP1;ratioP1;P2;durP2;ratioP2
27145;SDS011;17980;51.744;7.190;2023-05-02T00:00:47;33.60;;;27.93;;
27145;SDS011;17980;51.744;7.190;2023-05-02T00:03:15;33.20;;;27.33;;
27145;SDS011;17980;51.744;7.190;2023-05-02T00:05:52;35.93;;;28.70;;
27145;SDS011;17980;51.744;7.190;2023-05-02T00:08:19;35.80;;;26.97;;
27145;SDS011;17980;51.744;7.190;2023-05-02T00:10:46;33.07;;;28.00;;
27145;SDS011;17980;51.744;7.190;2023-05-02T00:13:14;35.23;;;28.73;;
27145;SDS011;17980;51.744;7.190;2023-05-02T00:15:51;37.33;;;30.33;;
27145;SDS011;17980;51.744;7.190;2023-05-02T00:18:18;35.23;;;29.30;;
27145;SDS011;17980;51.744;7.190;2023-05-02T00:20:45;34.37;;;29.30;;
27145;SDS011;17980;51.744;7.190;2023-05-02T00:23:22;37.00;;;28.90;;
27145;SDS011;17980;51.744;7.190;2023-05-02T00:25:50;36.37;;;30.43;;
27145;SDS011;17980;51.744;7.190;2023-05-02T00:28:26;40.40;;;30.90;;
27145;SDS011;17980;51.744;7.190;2023-05-02T00:30:54;37.93;;;30.17;;
27145;SDS011;17980;51.744;7.190;2023-05-02T00:33:21;40.90;;;30.13;;
27145;SDS011;17980;51.744;7.190;2023-05-02T00:35:58;43.43;;;31.33;;
27145;SDS011;17980;51.744;7.190;2023-05-02T00:38:25;38.97;;;31.27;;
27145;SDS011;17980;51.744;7.190;2023-05-02T00:40:53;40.33;;;31.63;;
27145;SDS011;17980;51.744;7.190;2023-05-02T00:43:20;44.10;;;33.03;;
27145;SDS011;17980;51.744;7.190;2023-05-02T00:45:57;43.10;;;31.07;;
27145;SDS011;17980;51.744;7.190;2023-05-02T00:48:24;42.73;;;32.40;;
27145;SDS011;17980;51.744;7.190;2023-05-02T00:50:52;41.80;;;32.70;;
27145;SDS011;17980;51.744;7.190;2023-05-02T00:53:29;43.70;;;34.70;;
27145;SDS011;17980;51.744;7.190;2023-05-02T00:55:57;41.37;;;33.10;;
27145;SDS011;17980;51.744;7.190;2023-05-02T00:58:39;44.73;;;32.63;;
27145;SDS011;17980;51.744;7.190;2023-05-02T01:01:13;44.80;;;34.00;;
27145;SDS011;17980;51.744;7.190;2023-05-02T01:03:50;46.70;;;34.87;;
27145;SDS011;17980;51.744;7.190;2023-05-02T01:06:42;40.87;;;34.10;;
27145;SDS011;17980;51.744;7.190;2023-05-02T01:09:06;46.37;;;35.17;;
27145;SDS011;17980;51.744;7.190;2023-05-02T01:11:50;43.10;;;34.97;;
27145;SDS011;17980;51.744;7.190;2023-05-02T01:14:19;48.77;;;36.63;;
27145;SDS011;17980;51.744;7.190;2023-05-02T01:16:58;48.63;;;34.03;;
27145;SDS011;17980;51.744;7.190;2023-05-02T01:19:30;45.43;;;33.80;;
27145;SDS011;17980;51.744;7.190;2023-05-02T01:22:01;46.43;;;35.13;;
27145;SDS011;17980;51.744;7.190;2023-05-02T01:24:39;42.87;;;34.20;;
27145;SDS011;17980;51.744;7.190;2023-05-02T01:27:20;46.27;;;35.23;;
27145;SDS011;17980;51.744;7.190;2023-05-02T01:29:49;46.07;;;33.47;;
27145;SDS011;17980;51.744;7.190;2023-05-02T01:32:27;41.63;;;33.00;;
27145;SDS011;17980;51.744;7.190;2023-05-02T01:34:58;44.23;;;34.90;;
27145;SDS011;17980;51.744;7.190;2023-05-02T01:37:36;40.50;;;32.17;;
27145;SDS011;17980;51.744;7.190;2023-05-02T01:40:06;39.33;;;32.07;;
27145;SDS011;17980;51.744;7.190;2023-05-02T01:42:45;40.30;;;30.93;;
27145;SDS011;17980;51.744;7.190;2023-05-02T01:45:13;37.97;;;30.53;;
27145;SDS011;17980;51.744;7.190;2023-05-02T01:47:51;39.17;;;29.23;;
27145;SDS011;17980;51.744;7.190;2023-05-02T01:50:20;38.27;;;28.73;;
27145;SDS011;17980;51.744;7.190;2023-05-02T01:52:50;34.23;;;27.37;;
27145;SDS011;17980;51.744;7.190;2023-05-02T01:55:27;36.47;;;28.10;;
27145;SDS011;17980;51.744;7.190;2023-05-02T01:57:54;35.53;;;27.77;;
27145;SDS011;17980;51.744;7.190;2023-05-02T02:00:22;37.63;;;28.80;;
27145;SDS011;17980;51.744;7.190;2023-05-02T02:03:06;34.20;;;27.43;;
27145;SDS011;17980;51.744;7.190;2023-05-02T02:05:34;32.37;;;27.63;;
27145;SDS011;17980;51.744;7.190;2023-05-02T02:08:12;30.50;;;24.10;;
27145;SDS011;17980;51.744;7.190;2023-05-02T02:10:40;28.87;;;23.93;;
27145;SDS011;17980;51.744;7.190;2023-05-02T02:13:14;32.83;;;25.33;;
27145;SDS011;17980;51.744;7.190;2023-05-02T02:15:52;33.27;;;23.40;;
27145;SDS011;17980;51.744;7.190;2023-05-02T02:18:22;32.73;;;23.60;;
27145;SDS011;17980;51.744;7.190;2023-05-02T02:20:53;29.83;;;23.03;;
27145;SDS011;17980;51.744;7.190;2023-05-02T02:23:31;29.13;;;22.30;;
27145;SDS011;17980;51.744;7.190;2023-05-02T02:25:59;30.07;;;23.43;;
27145;SDS011;17980;51.744;7.190;2023-05-02T02:28:37;29.40;;;22.97;;
27145;SDS011;17980;51.744;7.190;2023-05-02T02:31:05;28.37;;;22.57;;
27145;SDS011;17980;51.744;7.190;2023-05-02T02:33:32;27.57;;;20.80;;
27145;SDS011;17980;51.744;7.190;2023-05-02T02:36:11;28.30;;;20.50;;
27145;SDS011;17980;51.744;7.190;2023-05-02T02:38:43;25.40;;;20.20;;
27145;SDS011;17980;51.744;7.190;2023-05-02T02:41:21;24.60;;;19.83;;
27145;SDS011;17980;51.744;7.190;2023-05-02T02:43:54;25.50;;;20.07;;
27145;SDS011;17980;51.744;7.190;2023-05-02T02:46:37;25.93;;;18.60;;
27145;SDS011;17980;51.744;7.190;2023-05-02T02:49:12;25.37;;;18.33;;
27145;SDS011;17980;51.744;7.190;2023-05-02T02:51:44;25.20;;;18.77;;
27145;SDS011;17980;51.744;7.190;2023-05-02T02:54:23;25.93;;;18.10;;
27145;SDS011;17980;51.744;7.190;2023-05-02T02:56:56;23.47;;;16.67;;
27145;SDS011;17980;51.744;7.190;2023-05-02T02:59:35;22.43;;;16.93;;
27145;SDS011;17980;51.744;7.190;2023-05-02T03:02:14;23.67;;;17.80;;
27145;SDS011;17980;51.744;7.190;2023-05-02T03:04:52;22.17;;;16.83;;
27145;SDS011;17980;51.744;7.190;2023-05-02T03:07:22;21.70;;;16.20;;
27145;SDS011;17980;51.744;7.190;2023-05-02T03:09:51;20.23;;;16.50;;
27145;SDS011;17980;51.744;7.190;2023-05-02T03:12:18;23.87;;;17.40;;
27145;SDS011;17980;51.744;7.190;2023-05-02T03:14:55;19.77;;;16.37;;
27145;SDS011;17980;51.744;7.190;2023-05-02T03:17:27;21.87;;;15.50;;
27145;SDS011;17980;51.744;7.190;2023-05-02T03:19:54;20.50;;;14.83;;
27145;SDS011;17980;51.744;7.190;2023-05-02T03:22:22;21.57;;;14.97;;
27145;SDS011;17980;51.744;7.190;2023-05-02T03:24:59;21.20;;;14.43;;
27145;SDS011;17980;51.744;7.190;2023-05-02T03:27:26;17.07;;;14.10;;
27145;SDS011;17980;51.744;7.190;2023-05-02T03:29:54;18.47;;;14.00;;
27145;SDS011;17980;51.744;7.190;2023-05-02T03:32:21;20.60;;;15.50;;
27145;SDS011;17980;51.744;7.190;2023-05-02T03:34:58;17.40;;;13.57;;
27145;SDS011;17980;51.744;7.190;2023-05-02T03:37:25;17.53;;;14.20;;
27145;SDS011;17980;51.744;7.190;2023-05-02T03:39:52;19.93;;;14.60;;
27145;SDS011;17980;51.744;7.190;2023-05-02T03:42:20;20.13;;;14.30;;
27145;SDS011;17980;51.744;7.190;2023-05-02T03:44:47;21.67;;;13.57;;
27145;SDS011;17980;51.744;7.190;2023-05-02T03:47:27;18.53;;;14.67;;
27145;SDS011;17980;51.744;7.190;2023-05-02T03:49:55;21.80;;;14.23;;
27145;SDS011;17980;51.744;7.190;2023-05-02T03:52:22;19.40;;;14.07;;
27145;SDS011;17980;51.744;7.190;2023-05-02T03:54:50;18.43;;;13.43;;
27145;SDS011;17980;51.744;7.190;2023-05-02T03:57:29;22.63;;;15.23;;
27145;SDS011;17980;51.744;7.190;2023-05-02T03:59:56;20.00;;;13.60;;
27145;SDS011;17980;51.744;7.190;2023-05-02T04:02:24;23.00;;;14.40;;
27145;SDS011;17980;51.744;7.190;2023-05-02T04:04:51;23.47;;;14.63;;
27145;SDS011;17980;51.744;7.190;2023-05-02T04:07:28;21.63;;;14.43;;
27145;SDS011;17980;51.744;7.190;2023-05-02T04:09:55;20.30;;;13.93;;
27145;SDS011;17980;51.744;7.190;2023-05-02T04:12:32;18.90;;;13.97;;
27145;SDS011;17980;51.744;7.190;2023-05-02T04:14:59;24.10;;;16.00;;
27145;SDS011;17980;51.744;7.190;2023-05-02T04:17:36;20.20;;;15.00;;
27145;SDS011;17980;51.744;7.190;2023-05-02T04:20:05;23.37;;;14.97;;
27145;SDS011;17980;51.744;7.190;2023-05-02T04:22:36;25.67;;;16.10;;
27145;SDS011;17980;51.744;7.190;2023-05-02T04:25:04;21.77;;;16.70;;
27145;SDS011;17980;51.744;7.190;2023-05-02T04:27:33;25.60;;;15.30;;
27145;SDS011;17980;51.744;7.190;2023-05-02T04:30:10;21.80;;;15.13;;
27145;SDS011;17980;51.744;7.190;2023-05-02T04:32:38;26.50;;;16.07;;
27145;SDS011;17980;51.744;7.190;2023-05-02T04:35:15;16.30;;;11.60;;
27145;SDS011;17980;51.744;7.190;2023-05-02T04:37:42;13.17;;;9.00;;
27145;SDS011;17980;51.744;7.190;2023-05-02T04:42:52;10.47;;;5.23;;
27145;SDS011;17980;51.744;7.190;2023-05-02T04:45:19;7.27;;;4.50;;
27145;SDS011;17980;51.744;7.190;2023-05-02T04:47:46;6.47;;;3.30;;
27145;SDS011;17980;51.744;7.190;2023-05-02T04:50:14;7.93;;;3.17;;
27145;SDS011;17980;51.744;7.190;2023-05-02T04:52:50;5.43;;;2.67;;
27145;SDS011;17980;51.744;7.190;2023-05-02T04:55:18;4.70;;;2.83;;
27145;SDS011;17980;51.744;7.190;2023-05-02T05:00:22;7.20;;;3.47;;
27145;SDS011;17980;51.744;7.190;2023-05-02T05:02:49;6.80;;;3.10;;
27145;SDS011;17980;51.744;7.190;2023-05-02T05:05:26;9.60;;;3.00;;
27145;SDS011;17980;51.744;7.190;2023-05-02T05:07:53;4.43;;;2.83;;
27145;SDS011;17980;51.744;7.190;2023-05-02T05:10:21;8.97;;;3.27;;
27145;SDS011;17980;51.744;7.190;2023-05-02T05:12:58;6.43;;;2.73;;
27145;SDS011;17980;51.744;7.190;2023-05-02T05:15:25;7.17;;;2.73;;
27145;SDS011;17980;51.744;7.190;2023-05-02T05:17:53;10.40;;;2.70;;
27145;SDS011;17980;51.744;7.190;2023-05-02T05:20:20;4.80;;;2.47;;
27145;SDS011;17980;51.744;7.190;2023-05-02T05:22:57;7.17;;;2.90;;
27145;SDS011;17980;51.744;7.190;2023-05-02T05:25:25;8.43;;;2.73;;
27145;SDS011;17980;51.744;7.190;2023-05-02T05:27:52;7.40;;;2.50;;
27145;SDS011;17980;51.744;7.190;2023-05-02T05:30:21;3.47;;;2.07;;
27145;SDS011;17980;51.744;7.190;2023-05-02T05:32:58;7.27;;;2.40;;
27145;SDS011;17980;51.744;7.190;2023-05-02T05:35:25;7.00;;;2.50;;
27145;SDS011;17980;51.744;7.190;2023-05-02T05:40:28;6.57;;;2.40;;
27145;SDS011;17980;51.744;7.190;2023-05-02T05:42:56;5.30;;;2.03;;
27145;SDS011;17980;51.744;7.190;2023-05-02T05:45:33;6.20;;;2.57;;
27145;SDS011;17980;51.744;7.190;2023-05-02T05:48:00;8.53;;;2.50;;
27145;SDS011;17980;51.744;7.190;2023-05-02T05:50:27;5.03;;;2.00;;
27145;SDS011;17980;51.744;7.190;2023-05-02T05:53:04;6.23;;;2.37;;
27145;SDS011;17980;51.744;7.190;2023-05-02T05:55:32;5.73;;;1.70;;
27145;SDS011;17980;51.744;7.190;2023-05-02T05:57:59;8.40;;;2.57;;
27145;SDS011;17980;51.744;7.190;2023-05-02T06:00:26;7.30;;;2.37;;
27145;SDS011;17980;51.744;7.190;2023-05-02T06:03:04;4.03;;;1.83;;
27145;SDS011;17980;51.744;7.190;2023-05-02T06:05:32;6.70;;;2.17;;
27145;SDS011;17980;51.744;7.190;2023-05-02T06:07:59;6.13;;;1.90;;
27145;SDS011;17980;51.744;7.190;2023-05-02T06:10:36;6.40;;;2.13;;
27145;SDS011;17980;51.744;7.190;2023-05-02T06:13:03;9.43;;;2.17;;
27145;SDS011;17980;51.744;7.190;2023-05-02T06:15:40;3.90;;;2.13;;
27145;SDS011;17980;51.744;7.190;2023-05-02T06:18:07;11.93;;;2.60;;
27145;SDS011;17980;51.744;7.190;2023-05-02T06:20:44;8.10;;;2.30;;
27145;SDS011;17980;51.744;7.190;2023-05-02T06:23:12;7.90;;;2.30;;
27145;SDS011;17980;51.744;7.190;2023-05-02T06:25:49;8.00;;;2.13;;
27145;SDS011;17980;51.744;7.190;2023-05-02T06:28:16;9.13;;;2.97;;
27145;SDS011;17980;51.744;7.190;2023-05-02T06:30:43;6.27;;;2.50;;
27145;SDS011;17980;51.744;7.190;2023-05-02T06:33:20;4.27;;;1.97;;
27145;SDS011;17980;51.744;7.190;2023-05-02T06:35:50;12.23;;;3.20;;
27145;SDS011;17980;51.744;7.190;2023-05-02T06:38:17;11.00;;;2.50;;
27145;SDS011;17980;51.744;7.190;2023-05-02T06:40:54;4.97;;;1.43;;
27145;SDS011;17980;51.744;7.190;2023-05-02T06:43:22;1.40;;;1.20;;
27145;SDS011;17980;51.744;7.190;2023-05-02T06:45:59;4.13;;;1.50;;
27145;SDS011;17980;51.744;7.190;2023-05-02T06:48:27;3.77;;;1.20;;
27145;SDS011;17980;51.744;7.190;2023-05-02T06:51:05;3.60;;;1.07;;
27145;SDS011;17980;51.744;7.190;2023-05-02T06:53:32;1.63;;;1.00;;
27145;SDS011;17980;51.744;7.190;2023-05-02T06:56:09;2.77;;;1.47;;
27145;SDS011;17980;51.744;7.190;2023-05-02T06:58:36;1.30;;;1.00;;
27145;SDS011;17980;51.744;7.190;2023-05-02T07:01:13;1.60;;;0.93;;
27145;SDS011;17980;51.744;7.190;2023-05-02T07:03:40;3.63;;;1.67;;
27145;SDS011;17980;51.744;7.190;2023-05-02T07:06:08;4.20;;;1.40;;
27145;SDS011;17980;51.744;7.190;2023-05-02T07:08:35;5.77;;;1.70;;
27145;SDS011;17980;51.744;7.190;2023-05-02T07:11:12;8.50;;;2.13;;
27145;SDS011;17980;51.744;7.190;2023-05-02T07:13:39;8.60;;;3.20;;
27145;SDS011;17980;51.744;7.190;2023-05-02T07:16:07;9.53;;;3.37;;
27145;SDS011;17980;51.744;7.190;2023-05-02T07:21:10;6.57;;;2.73;;
27145;SDS011;17980;51.744;7.190;2023-05-02T07:23:37;11.00;;;3.63;;
27145;SDS011;17980;51.744;7.190;2023-05-02T07:26:14;6.73;;;2.47;;
27145;SDS011;17980;51.744;7.190;2023-05-02T07:28:43;10.00;;;3.23;;
27145;SDS011;17980;51.744;7.190;2023-05-02T07:31:13;9.20;;;3.10;;
27145;SDS011;17980;51.744;7.190;2023-05-02T07:33:56;9.97;;;2.87;;
27145;SDS011;17980;51.744;7.190;2023-05-02T07:36:23;13.67;;;3.27;;
27145;SDS011;17980;51.744;7.190;2023-05-02T07:38:50;9.00;;;3.07;;
27145;SDS011;17980;51.744;7.190;2023-05-02T07:41:27;9.47;;;3.30;;
27145;SDS011;17980;51.744;7.190;2023-05-02T07:43:55;8.10;;;3.17;;
27145;SDS011;17980;51.744;7.190;2023-05-02T07:46:31;12.07;;;4.30;;
27145;SDS011;17980;51.744;7.190;2023-05-02T07:48:59;6.87;;;2.67;;
27145;SDS011;17980;51.744;7.190;2023-05-02T07:51:36;8.03;;;2.80;;
27145;SDS011;17980;51.744;7.190;2023-05-02T07:54:10;12.07;;;3.57;;
27145;SDS011;17980;51.744;7.190;2023-05-02T07:56:42;8.43;;;2.97;;
27145;SDS011;17980;51.744;7.190;2023-05-02T08:01:46;9.07;;;3.27;;
27145;SDS011;17980;51.744;7.190;2023-05-02T08:04:13;13.23;;;3.30;;
27145;SDS011;17980;51.744;7.190;2023-05-02T08:06:40;8.33;;;3.10;;
27145;SDS011;17980;51.744;7.190;2023-05-02T08:09:09;7.83;;;2.83;;
27145;SDS011;17980;51.744;7.190;2023-05-02T08:11:46;8.13;;;2.33;;
27145;SDS011;17980;51.744;7.190;2023-05-02T08:14:13;8.47;;;2.73;;
27145;SDS011;17980;51.744;7.190;2023-05-02T08:16:41;5.00;;;1.70;;
27145;SDS011;17980;51.744;7.190;2023-05-02T08:19:09;6.80;;;2.53;;
27145;SDS011;17980;51.744;7.190;2023-05-02T08:21:46;8.30;;;2.40;;
27145;SDS011;17980;51.744;7.190;2023-05-02T08:24:13;6.73;;;2.30;;
27145;SDS011;17980;51.744;7.190;2023-05-02T08:26:40;7.20;;;2.60;;
27145;SDS011;17980;51.744;7.190;2023-05-02T08:29:08;8.13;;;2.37;;
27145;SDS011;17980;51.744;7.190;2023-05-02T08:31:44;11.00;;;2.03;;
27145;SDS011;17980;51.744;7.190;2023-05-02T08:34:12;3.80;;;1.60;;
27145;SDS011;17980;51.744;7.190;2023-05-02T08:36:50;8.63;;;1.63;;
27145;SDS011;17980;51.744;7.190;2023-05-02T08:39:17;9.83;;;2.17;;
27145;SDS011;17980;51.744;7.190;2023-05-02T08:41:54;16.03;;;2.87;;
27145;SDS011;17980;51.744;7.190;2023-05-02T08:44:23;8.73;;;1.77;;
27145;SDS011;17980;51.744;7.190;2023-05-02T08:46:50;5.40;;;2.00;;
27145;SDS011;17980;51.744;7.190;2023-05-02T08:49:19;6.83;;;1.70;;
27145;SDS011;17980;51.744;7.190;2023-05-02T08:51:56;7.70;;;4.13;;
27145;SDS011;17980;51.744;7.190;2023-05-02T08:54:26;8.03;;;1.83;;
27145;SDS011;17980;51.744;7.190;2023-05-02T08:56:54;5.93;;;1.50;;
27145;SDS011;17980;51.744;7.190;2023-05-02T08:59:24;9.37;;;1.77;;
27145;SDS011;17980;51.744;7.190;2023-05-02T09:02:03;5.87;;;1.67;;
27145;SDS011;17980;51.744;7.190;2023-05-02T09:04:32;9.17;;;1.90;;
27145;SDS011;17980;51.744;7.190;2023-05-02T09:07:09;6.43;;;1.60;;
27145;SDS011;17980;51.744;7.190;2023-05-02T09:09:37;6.77;;;1.67;;
27145;SDS011;17980;51.744;7.190;2023-05-02T09:12:23;7.83;;;2.03;;
27145;SDS011;17980;51.744;7.190;2023-05-02T09:15:08;6.30;;;1.77;;
27145;SDS011;17980;51.744;7.190;2023-05-02T09:17:46;5.53;;;1.50;;
27145;SDS011;17980;51.744;7.190;2023-05-02T09:20:15;8.77;;;2.03;;
27145;SDS011;17980;51.744;7.190;2023-05-02T09:22:52;5.80;;;1.37;;
27145;SDS011;17980;51.744;7.190;2023-05-02T09:25:19;6.60;;;1.33;;
27145;SDS011;17980;51.744;7.190;2023-05-02T09:27:50;12.50;;;1.57;;
27145;SDS011;17980;51.744;7.190;2023-05-02T09:30:19;7.90;;;1.73;;
27145;SDS011;17980;51.744;7.190;2023-05-02T09:32:57;11.80;;;1.50;;
27145;SDS011;17980;51.744;7.190;2023-05-02T09:35:25;7.43;;;1.70;;
27145;SDS011;17980;51.744;7.190;2023-05-02T09:37:53;9.53;;;1.93;;
27145;SDS011;17980;51.744;7.190;2023-05-02T09:40:21;8.23;;;1.60;;
27145;SDS011;17980;51.744;7.190;2023-05-02T09:42:58;8.73;;;1.97;;
27145;SDS011;17980;51.744;7.190;2023-05-02T09:45:28;6.53;;;1.53;;
27145;SDS011;17980;51.744;7.190;2023-05-02T09:47:55;8.37;;;1.30;;
27145;SDS011;17980;51.744;7.190;2023-05-02T09:50:37;9.53;;;1.60;;
27145;SDS011;17980;51.744;7.190;2023-05-02T09:53:05;6.93;;;1.40;;
27145;SDS011;17980;51.744;7.190;2023-05-02T09:55:42;10.73;;;1.77;;
27145;SDS011;17980;51.744;7.190;2023-05-02T09:58:18;6.00;;;1.77;;
27145;SDS011;17980;51.744;7.190;2023-05-02T10:00:56;5.63;;;1.30;;
27145;SDS011;17980;51.744;7.190;2023-05-02T10:03:24;9.43;;;1.50;;
27145;SDS011;17980;51.744;7.190;2023-05-02T10:06:01;4.77;;;1.00;;
27145;SDS011;17980;51.744;7.190;2023-05-02T10:08:31;17.20;;;1.63;;
27145;SDS011;17980;51.744;7.190;2023-05-02T10:11:00;7.77;;;1.30;;
27145;SDS011;17980;51.744;7.190;2023-05-02T10:13:39;8.33;;;1.23;;
27145;SDS011;17980;51.744;7.190;2023-05-02T10:16:10;10.53;;;1.40;;
27145;SDS011;17980;51.744;7.190;2023-05-02T10:18:40;9.27;;;1.50;;
27145;SDS011;17980;51.744;7.190;2023-05-02T10:21:23;6.53;;;1.10;;
27145;SDS011;17980;51.744;7.190;2023-05-02T10:23:55;5.33;;;1.47;;
27145;SDS011;17980;51.744;7.190;2023-05-02T10:26:32;6.33;;;1.47;;
27145;SDS011;17980;51.744;7.190;2023-05-02T10:31:37;4.20;;;1.20;;
27145;SDS011;17980;51.744;7.190;2023-05-02T10:34:08;3.23;;;1.07;;
27145;SDS011;17980;51.744;7.190;2023-05-02T10:36:38;6.67;;;1.10;;
27145;SDS011;17980;51.744;7.190;2023-05-02T10:39:15;1.50;;;0.80;;
27145;SDS011;17980;51.744;7.190;2023-05-02T10:41:44;4.17;;;0.77;;
27145;SDS011;17980;51.744;7.190;2023-05-02T10:44:31;3.90;;;0.70;;
27145;SDS011;17980;51.744;7.190;2023-05-02T10:49:48;2.60;;;0.60;;
27145;SDS011;17980;51.744;7.190;2023-05-02T10:55:12;5.83;;;1.23;;
27145;SDS011;17980;51.744;7.190;2023-05-02T11:04:05;5.13;;;1.20;;
27145;SDS011;17980;51.744;7.190;2023-05-02T11:12:53;3.13;;;1.00;;
27145;SDS011;17980;51.744;7.190;2023-05-02T11:18:22;5.43;;;1.27;;
27145;SDS011;17980;51.744;7.190;2023-05-02T11:20:49;3.67;;;1.20;;
27145;SDS011;17980;51.744;7.190;2023-05-02T11:23:26;5.63;;;1.00;;
27145;SDS011;17980;51.744;7.190;2023-05-02T11:25:54;4.70;;;1.20;;
27145;SDS011;17980;51.744;7.190;2023-05-02T11:28:41;5.47;;;1.17;;
27145;SDS011;17980;51.744;7.190;2023-05-02T11:34:28;11.03;;;2.07;;
27145;SDS011;17980;51.744;7.190;2023-05-02T11:36:57;7.43;;;1.63;;
27145;SDS011;17980;51.744;7.190;2023-05-02T11:39:24;4.80;;;1.47;;
27145;SDS011;17980;51.744;7.190;2023-05-02T11:42:01;5.67;;;1.90;;
27145;SDS011;17980;51.744;7.190;2023-05-02T11:44:28;4.20;;;1.30;;
27145;SDS011;17980;51.744;7.190;2023-05-02T11:46:56;7.47;;;1.40;;
27145;SDS011;17980;51.744;7.190;2023-05-02T11:49:23;5.00;;;1.50;;
27145;SDS011;17980;51.744;7.190;2023-05-02T11:52:00;10.17;;;1.80;;
27145;SDS011;17980;51.744;7.190;2023-05-02T11:54:27;7.83;;;1.47;;
27145;SDS011;17980;51.744;7.190;2023-05-02T11:56:55;4.50;;;1.47;;
27145;SDS011;17980;51.744;7.190;2023-05-02T11:59:24;3.33;;;1.80;;
27145;SDS011;17980;51.744;7.190;2023-05-02T12:02:07;4.67;;;1.40;;
27145;SDS011;17980;51.744;7.190;2023-05-02T12:04:41;6.33;;;1.53;;
27145;SDS011;17980;51.744;7.190;2023-05-02T12:07:18;9.17;;;1.63;;
27145;SDS011;17980;51.744;7.190;2023-05-02T12:09:52;5.93;;;1.63;;
27145;SDS011;17980;51.744;7.190;2023-05-02T12:12:29;6.23;;;1.40;;
27145;SDS011;17980;51.744;7.190;2023-05-02T12:15:01;5.37;;;1.43;;
27145;SDS011;17980;51.744;7.190;2023-05-02T12:17:41;3.57;;;1.40;;
27145;SDS011;17980;51.744;7.190;2023-05-02T12:20:12;2.87;;;1.30;;
27145;SDS011;17980;51.744;7.190;2023-05-02T12:22:55;7.03;;;1.93;;
27145;SDS011;17980;51.744;7.190;2023-05-02T12:25:23;4.33;;;1.40;;
27145;SDS011;17980;51.744;7.190;2023-05-02T12:28:00;6.27;;;1.80;;
27145;SDS011;17980;51.744;7.190;2023-05-02T12:30:33;5.20;;;2.37;;
27145;SDS011;17980;51.744;7.190;2023-05-02T12:35:46;5.50;;;1.53;;
27145;SDS011;17980;51.744;7.190;2023-05-02T12:38:16;6.90;;;1.70;;
27145;SDS011;17980;51.744;7.190;2023-05-02T12:40:48;5.50;;;1.53;;
27145;SDS011;17980;51.744;7.190;2023-05-02T12:43:25;7.37;;;1.90;;
27145;SDS011;17980;51.744;7.190;2023-05-02T12:46:08;9.10;;;1.93;;
27145;SDS011;17980;51.744;7.190;2023-05-02T12:48:36;6.67;;;1.60;;
27145;SDS011;17980;51.744;7.190;2023-05-02T12:51:04;6.83;;;2.10;;
27145;SDS011;17980;51.744;7.190;2023-05-02T12:53:41;7.90;;;2.17;;
27145;SDS011;17980;51.744;7.190;2023-05-02T12:56:10;6.67;;;2.20;;
27145;SDS011;17980;51.744;7.190;2023-05-02T12:58:41;5.23;;;1.97;;
27145;SDS011;17980;51.744;7.190;2023-05-02T13:01:10;6.70;;;2.20;;
27145;SDS011;17980;51.744;7.190;2023-05-02T13:03:49;11.13;;;2.93;;
27145;SDS011;17980;51.744;7.190;2023-05-02T13:06:16;11.47;;;2.33;;
27145;SDS011;17980;51.744;7.190;2023-05-02T13:08:44;6.47;;;1.80;;
27145;SDS011;17980;51.744;7.190;2023-05-02T13:11:11;8.10;;;2.67;;
27145;SDS011;17980;51.744;7.190;2023-05-02T13:13:48;7.43;;;2.13;;
27145;SDS011;17980;51.744;7.190;2023-05-02T13:16:15;6.20;;;2.40;;
27145;SDS011;17980;51.744;7.190;2023-05-02T13:18:43;4.13;;;1.87;;
27145;SDS011;17980;51.744;7.190;2023-05-02T13:21:10;9.60;;;2.23;;
27145;SDS011;17980;51.744;7.190;2023-05-02T13:23:47;5.60;;;1.67;;
27145;SDS011;17980;51.744;7.190;2023-05-02T13:28:51;6.23;;;2.20;;
27145;SDS011;17980;51.744;7.190;2023-05-02T13:31:18;7.63;;;2.77;;
27145;SDS011;17980;51.744;7.190;2023-05-02T13:33:55;6.90;;;2.03;;
27145;SDS011;17980;51.744;7.190;2023-05-02T13:36:22;6.80;;;2.33;;
27145;SDS011;17980;51.744;7.190;2023-05-02T13:38:50;5.23;;;2.40;;
27145;SDS011;17980;51.744;7.190;2023-05-02T13:41:27;5.83;;;2.03;;
27145;SDS011;17980;51.744;7.190;2023-05-02T13:43:54;5.70;;;1.90;;
27145;SDS011;17980;51.744;7.190;2023-05-02T13:46:31;11.30;;;2.30;;
27145;SDS011;17980;51.744;7.190;2023-05-02T13:49:00;7.67;;;2.50;;
27145;SDS011;17980;51.744;7.190;2023-05-02T13:51:28;6.10;;;2.10;;
27145;SDS011;17980;51.744;7.190;2023-05-02T13:54:05;6.07;;;2.17;;
27145;SDS011;17980;51.744;7.190;2023-05-02T13:56:32;6.20;;;2.40;;
27145;SDS011;17980;51.744;7.190;2023-05-02T13:59:00;6.53;;;2.10;;
27145;SDS011;17980;51.744;7.190;2023-05-02T14:01:27;6.10;;;2.67;;
27145;SDS011;17980;51.744;7.190;2023-05-02T14:04:04;4.80;;;2.20;;
27145;SDS011;17980;51.744;7.190;2023-05-02T14:06:33;5.93;;;2.77;;
27145;SDS011;17980;51.744;7.190;2023-05-02T14:09:01;7.80;;;2.30;;
27145;SDS011;17980;51.744;7.190;2023-05-02T14:14:05;5.73;;;2.23;;
27145;SDS011;17980;51.744;7.190;2023-05-02T14:16:33;11.03;;;2.30;;
27145;SDS011;17980;51.744;7.190;2023-05-02T14:19:01;9.20;;;2.37;;
27145;SDS011;17980;51.744;7.190;2023-05-02T14:21:28;7.47;;;2.50;;
27145;SDS011;17980;51.744;7.190;2023-05-02T14:24:05;6.07;;;2.07;;
27145;SDS011;17980;51.744;7.190;2023-05-02T14:26:32;9.93;;;2.70;;
27145;SDS011;17980;51.744;7.190;2023-05-02T14:28:59;6.37;;;2.50;;
27145;SDS011;17980;51.744;7.190;2023-05-02T14:31:27;7.43;;;2.97;;
27145;SDS011;17980;51.744;7.190;2023-05-02T14:34:04;5.80;;;2.50;;
27145;SDS011;17980;51.744;7.190;2023-05-02T14:36:31;9.87;;;3.03;;
27145;SDS011;17980;51.744;7.190;2023-05-02T14:38:58;5.80;;;2.80;;
27145;SDS011;17980;51.744;7.190;2023-05-02T14:41:26;7.30;;;2.63;;
27145;SDS011;17980;51.744;7.190;2023-05-02T14:44:03;11.87;;;2.90;;
27145;SDS011;17980;51.744;7.190;2023-05-02T14:46:30;7.50;;;2.23;;
27145;SDS011;17980;51.744;7.190;2023-05-02T14:48:57;7.40;;;2.70;;
27145;SDS011;17980;51.744;7.190;2023-05-02T14:51:25;9.60;;;2.90;;
27145;SDS011;17980;51.744;7.190;2023-05-02T14:54:08;9.33;;;3.30;;
27145;SDS011;17980;51.744;7.190;2023-05-02T14:56:35;11.87;;;2.30;;
27145;SDS011;17980;51.744;7.190;2023-05-02T14:59:02;8.43;;;3.00;;
27145;SDS011;17980;51.744;7.190;2023-05-02T15:01:30;7.63;;;2.77;;
27145;SDS011;17980;51.744;7.190;2023-05-02T15:04:06;8.43;;;2.80;;
27145;SDS011;17980;51.744;7.190;2023-05-02T15:06:34;11.73;;;2.40;;
27145;SDS011;17980;51.744;7.190;2023-05-02T15:11:37;7.57;;;2.50;;
27145;SDS011;17980;51.744;7.190;2023-05-02T15:14:04;7.60;;;2.60;;
27145;SDS011;17980;51.744;7.190;2023-05-02T15:16:41;9.80;;;3.30;;
27145;SDS011;17980;51.744;7.190;2023-05-02T15:19:09;9.33;;;2.70;;
27145;SDS011;17980;51.744;7.190;2023-05-02T15:21:36;6.33;;;2.70;;
27145;SDS011;17980;51.744;7.190;2023-05-02T15:24:15;7.40;;;2.73;;
27145;SDS011;17980;51.744;7.190;2023-05-02T15:26:43;7.70;;;3.37;;
27145;SDS011;17980;51.744;7.190;2023-05-02T15:29:11;9.63;;;2.57;;
27145;SDS011;17980;51.744;7.190;2023-05-02T15:31:38;6.53;;;3.07;;
27145;SDS011;17980;51.744;7.190;2023-05-02T15:34:15;6.30;;;2.37;;
27145;SDS011;17980;51.744;7.190;2023-05-02T15:36:42;7.60;;;2.40;;
27145;SDS011;17980;51.744;7.190;2023-05-02T15:39:10;4.83;;;2.13;;
27145;SDS011;17980;51.744;7.190;2023-05-02T15:41:37;8.27;;;2.50;;
27145;SDS011;17980;51.744;7.190;2023-05-02T15:44:14;10.97;;;2.93;;
27145;SDS011;17980;51.744;7.190;2023-05-02T15:46:41;5.87;;;2.60;;
27145;SDS011;17980;51.744;7.190;2023-05-02T15:49:10;3.63;;;1.97;;
27145;SDS011;17980;51.744;7.190;2023-05-02T15:51:38;6.23;;;2.50;;
27145;SDS011;17980;51.744;7.190;2023-05-02T15:54:15;9.00;;;2.63;;